Yorkville, Ohio
Current Conditions -  °F | °C
As of 11:53 PM on Friday 28 Nov 2014 (Local Time) from KHLG Reporting Station
Scattered Clouds Scattered Clouds  
Wind Chill: 19°   Ceiling: Unl
Heat Index: 27°   Visibility: 10mi
Dew Point: 18°   Wind: 7mph
Humidity: 69%   Direction: 160°SSE
Pressure: 30.15"   Gusts: NA
Location:  40.15°N, 80.71°W
Report Text: KHLG 290453Z AUTO 16006KT 10SM SCT110 M03/M08 A3015 RMK AO2 SLP229 T10281078 410221056
Loading
Personal Weather Stations






























Interactive Weather Map New forecast layout! Learn more

10-Day Weather Forecast

Advertisements
Track Severe Weather on mobile